KBMG

Monroe County Airport

Bloomington, Indiana, USA
METAR KBMG 191453Z 09004KT 10SM CLR 26/21 A2999 RMK AO2 SLP147 T02610211 51006
Observed Flight Rules
Aug-19 @ 14:53 UTC (45 minutes ago) Visual Flight Rules
Wind Visibility Clouds
90° at 4 knots 10 miles
  • Clear skies
Temperatures Readings
Current 26°C / 79°F
Dewpoint 21°C / 70°F
Humidity 74%
Altimeter 29.99" Hg
Pressure 1014.7 hPa
Elevation 257
METAR KBMG 191453Z 09004KT 10SM CLR 26/21 A2999 RMK AO2 SLP147 T02610211 51006
Observed Flight Rules
Aug-19 @ 14:53 UTC
(45 minutes ago)
VFR
Wind Visibility
90° at 4 knots 10 miles
Clouds
  • Clear skies
Temperature Dewpoint
26°C / 79°F 21°C / 70°F
Humidity Altimeter Pressure
74% 29.99" Hg 1014.7 hPa